createdAt,value
2023-08-08T00:02:22.557Z,78.01
2023-08-08T00:04:52.834Z,78.18
2023-08-08T00:07:20.724Z,78.51
2023-08-08T00:09:48.727Z,78.65
2023-08-08T00:12:16.868Z,78.83
2023-08-08T00:14:44.748Z,79.47
2023-08-08T00:17:12.667Z,79.63
2023-08-08T00:19:40.685Z,79.68
2023-08-08T00:22:08.753Z,79.75
2023-08-08T00:24:36.745Z,79.85
2023-08-08T00:27:04.811Z,80.07
2023-08-08T00:29:32.719Z,80.18
2023-08-08T00:32:00.964Z,80.35
2023-08-08T00:34:29.208Z,81.21
2023-08-08T00:36:57.082Z,81.01
2023-08-08T00:39:25.020Z,80.98
2023-08-08T00:41:52.989Z,80.98
2023-08-08T00:44:20.871Z,81.03
2023-08-08T00:46:49.136Z,81.04
2023-08-08T00:49:17.331Z,81.12
2023-08-08T00:51:45.224Z,80.99
2023-08-08T00:54:13.961Z,80.91
2023-08-08T00:56:42.002Z,80.77
2023-08-08T00:59:12.367Z,80.63
2023-08-08T01:01:40.354Z,80.65
2023-08-08T01:04:09.366Z,80.73
2023-08-08T01:06:44.951Z,80.65
2023-08-08T01:09:19.449Z,80.47
2023-08-08T01:11:50.934Z,80.28
2023-08-08T01:14:21.330Z,80.12
2023-08-08T01:16:49.451Z,80.03
2023-08-08T01:19:26.067Z,79.98
2023-08-08T01:21:56.688Z,79.95
2023-08-08T01:24:28.149Z,80.03
2023-08-08T01:26:56.305Z,80.05
2023-08-08T01:29:24.686Z,79.99
2023-08-08T01:31:52.582Z,80.12
2023-08-08T01:34:20.588Z,80.23
2023-08-08T01:37:02.145Z,80.35
2023-08-08T01:39:33.115Z,80.60
2023-08-08T01:42:02.773Z,80.60
2023-08-08T01:44:31.547Z,80.61
2023-08-08T01:46:59.747Z,80.78
2023-08-08T01:49:27.697Z,80.89
2023-08-08T01:51:55.686Z,80.97
2023-08-08T01:54:23.641Z,81.27
2023-08-08T01:56:51.552Z,81.94
2023-08-08T01:59:19.418Z,82.13
2023-08-08T02:01:47.371Z,82.28
2023-08-08T02:04:15.830Z,82.54
2023-08-08T02:06:43.736Z,82.68
2023-08-08T02:09:11.695Z,82.84
2023-08-08T02:11:39.544Z,83.00
2023-08-08T02:14:07.491Z,83.17
2023-08-08T02:16:35.522Z,83.40
2023-08-08T02:19:03.551Z,83.59
2023-08-08T02:21:31.452Z,83.83
2023-08-08T02:23:59.680Z,83.97
2023-08-08T02:26:27.793Z,84.22
2023-08-08T02:28:55.803Z,84.48
2023-08-08T02:31:23.775Z,84.71
2023-08-08T02:33:52.928Z,84.88
2023-08-08T02:36:21.481Z,85.18
2023-08-08T02:38:49.430Z,85.39
2023-08-08T02:41:17.320Z,85.56
2023-08-08T02:43:45.185Z,85.67
2023-08-08T02:46:13.096Z,85.91
2023-08-08T02:48:41.101Z,86.00
2023-08-08T02:51:09.054Z,86.10
2023-08-08T02:53:36.957Z,86.18
2023-08-08T02:56:04.971Z,86.35
2023-08-08T02:58:32.892Z,86.43
2023-08-08T03:01:00.941Z,86.54
2023-08-08T03:03:28.997Z,86.65
2023-08-08T03:05:56.943Z,86.79
2023-08-08T03:08:24.887Z,86.89
2023-08-08T03:10:52.887Z,86.97
2023-08-08T03:13:22.213Z,87.08
2023-08-08T03:15:50.451Z,87.26
2023-08-08T03:18:18.632Z,87.38
2023-08-08T03:20:46.845Z,87.42
2023-08-08T03:23:14.865Z,87.47
2023-08-08T03:25:43.258Z,87.61
2023-08-08T03:28:11.190Z,87.77
2023-08-08T03:30:40.433Z,87.79
2023-08-08T03:33:08.419Z,87.86
2023-08-08T03:35:36.280Z,88.00
2023-08-08T03:38:05.169Z,88.14
2023-08-08T03:40:33.616Z,88.32
2023-08-08T03:43:01.798Z,88.39
2023-08-08T03:45:30.050Z,88.48
2023-08-08T03:47:57.994Z,88.60
2023-08-08T03:50:26.241Z,88.66
2023-08-08T03:52:55.345Z,88.70
2023-08-08T03:55:23.394Z,88.77
2023-08-08T03:57:51.389Z,88.82
2023-08-08T04:00:19.527Z,88.93
2023-08-08T04:02:47.619Z,89.02
2023-08-08T04:05:15.672Z,89.14
2023-08-08T04:07:43.710Z,89.23
2023-08-08T04:10:12.071Z,89.37
2023-08-08T04:12:40.016Z,89.46
2023-08-08T04:15:08.361Z,89.56
2023-08-08T04:17:36.428Z,89.67
2023-08-08T04:20:04.948Z,89.86
2023-08-08T04:22:32.883Z,89.99
2023-08-08T04:25:01.044Z,90.10
2023-08-08T04:27:29.008Z,90.20
2023-08-08T04:29:56.985Z,90.29
2023-08-08T04:32:25.014Z,90.41
2023-08-08T04:34:52.931Z,90.52
2023-08-08T04:37:20.880Z,90.66
2023-08-08T04:39:48.880Z,90.78
2023-08-08T04:42:16.842Z,90.88
2023-08-08T04:44:44.902Z,90.99
2023-08-08T04:47:12.823Z,91.11
2023-08-08T04:49:40.714Z,91.25
2023-08-08T04:52:08.656Z,91.34
2023-08-08T04:54:36.780Z,91.40
2023-08-08T04:57:04.772Z,91.54
2023-08-08T04:59:32.933Z,91.64
2023-08-08T05:02:01.379Z,91.96
2023-08-08T05:04:29.702Z,91.97
2023-08-08T05:06:57.673Z,92.02
2023-08-08T05:09:28.769Z,92.06
2023-08-08T05:11:56.836Z,92.11
2023-08-08T05:14:24.862Z,92.21
2023-08-08T05:16:52.978Z,92.24
2023-08-08T05:19:21.124Z,92.30
2023-08-08T05:21:50.257Z,92.36
2023-08-08T05:24:18.436Z,92.40
2023-08-08T05:26:46.581Z,92.47
2023-08-08T05:29:14.547Z,92.51
2023-08-08T05:31:42.507Z,92.56
2023-08-08T05:34:10.436Z,92.61
2023-08-08T05:36:38.379Z,92.69
2023-08-08T05:39:09.575Z,92.67
2023-08-08T05:41:37.771Z,92.63
2023-08-08T05:44:05.830Z,92.60
2023-08-08T05:46:34.188Z,92.49
2023-08-08T05:49:03.643Z,92.42
2023-08-08T05:51:31.560Z,92.28
2023-08-08T05:54:02.101Z,92.24
2023-08-08T05:56:38.451Z,92.11
2023-08-08T05:59:07.026Z,92.10
2023-08-08T06:01:36.352Z,91.57
2023-08-08T06:04:04.437Z,91.12
2023-08-08T06:06:32.363Z,90.88
2023-08-08T06:09:00.346Z,90.55
2023-08-08T06:11:28.348Z,90.25
2023-08-08T06:13:57.096Z,89.90
2023-08-08T06:16:25.174Z,88.54
2023-08-08T06:18:54.769Z,88.92
2023-08-08T06:21:22.708Z,88.58
2023-08-08T06:23:51.620Z,88.26
2023-08-08T06:26:19.517Z,87.93
2023-08-08T06:28:47.673Z,86.91
2023-08-08T06:31:16.757Z,86.78
2023-08-08T06:33:45.596Z,85.20
2023-08-08T06:36:13.478Z,85.50
2023-08-08T06:38:41.720Z,84.72
2023-08-08T06:41:10.857Z,84.77
2023-08-08T06:43:38.826Z,84.40
2023-08-08T06:46:07.186Z,84.38
2023-08-08T06:48:35.125Z,82.71
2023-08-08T06:51:03.105Z,82.11
2023-08-08T06:53:31.072Z,82.72
2023-08-08T06:55:59.127Z,81.44
2023-08-08T06:58:27.072Z,82.19
2023-08-08T07:00:55.058Z,81.60
2023-08-08T07:03:23.305Z,81.29
2023-08-08T07:05:54.306Z,80.46
2023-08-08T07:08:24.229Z,80.04
2023-08-08T07:10:53.456Z,79.84
2023-08-08T07:13:22.628Z,79.02
2023-08-08T07:15:50.721Z,78.60
2023-08-08T07:18:18.898Z,78.15
2023-08-08T07:20:46.821Z,78.22
2023-08-08T07:23:14.749Z,78.02
2023-08-08T07:25:42.676Z,77.77
2023-08-08T07:28:11.144Z,77.90
2023-08-08T07:30:39.242Z,77.89
2023-08-08T07:33:07.172Z,77.37
2023-08-08T07:35:35.795Z,76.95
2023-08-08T07:38:03.722Z,76.77
2023-08-08T07:40:31.847Z,76.43
2023-08-08T07:42:59.801Z,76.11
2023-08-08T07:45:27.924Z,75.66
2023-08-08T07:47:55.910Z,75.40
2023-08-08T07:50:23.928Z,75.12
2023-08-08T07:52:51.895Z,74.73
2023-08-08T07:55:19.901Z,74.49
2023-08-08T07:57:48.108Z,74.42
2023-08-08T08:00:16.811Z,74.38
2023-08-08T08:02:45.845Z,74.06
2023-08-08T08:05:14.722Z,73.79
2023-08-08T08:07:43.173Z,73.59
2023-08-08T08:10:15.537Z,73.37
2023-08-08T08:12:44.179Z,73.35
2023-08-08T08:15:12.995Z,73.03
2023-08-08T08:17:41.070Z,72.83
2023-08-08T08:20:13.168Z,72.46
2023-08-08T08:22:41.256Z,72.10
2023-08-08T08:25:11.537Z,71.84
2023-08-08T08:27:39.980Z,71.87
2023-08-08T08:30:09.381Z,71.52
2023-08-08T08:32:38.517Z,71.46
2023-08-08T08:35:06.913Z,71.40
2023-08-08T08:37:35.398Z,71.34
2023-08-08T08:40:03.505Z,71.37
2023-08-08T08:42:34.357Z,71.24
2023-08-08T08:45:05.264Z,71.01
2023-08-08T08:47:34.324Z,70.59
2023-08-08T08:50:04.375Z,70.46
2023-08-08T08:52:32.668Z,70.38
2023-08-08T08:55:00.899Z,70.18
2023-08-08T08:57:29.589Z,70.19
2023-08-08T08:59:57.549Z,70.12
2023-08-08T09:02:26.423Z,69.87
2023-08-08T09:04:55.496Z,69.57
2023-08-08T09:07:28.416Z,69.29
2023-08-08T09:09:56.400Z,68.95
2023-08-08T09:12:25.936Z,68.56
2023-08-08T09:15:00.594Z,67.98
2023-08-08T09:17:46.249Z,67.37
2023-08-08T09:20:16.511Z,67.49
2023-08-08T09:22:44.586Z,67.44
2023-08-08T09:25:12.680Z,67.54
2023-08-08T09:27:40.579Z,67.57
2023-08-08T09:30:11.373Z,67.49
2023-08-08T09:32:39.726Z,67.23
2023-08-08T09:35:11.783Z,66.93
2023-08-08T09:37:40.397Z,66.79
2023-08-08T09:40:10.279Z,66.82
2023-08-08T09:42:38.544Z,66.65
2023-08-08T09:45:07.150Z,66.31
2023-08-08T09:47:35.188Z,66.03
2023-08-08T09:50:07.199Z,66.08
2023-08-08T09:52:42.762Z,65.66
2023-08-08T09:55:13.202Z,65.31
2023-08-08T09:57:42.199Z,65.03
2023-08-08T10:00:18.263Z,64.72
2023-08-08T10:02:48.910Z,64.75
2023-08-08T10:05:18.342Z,63.02
2023-08-08T10:07:46.552Z,62.41
2023-08-08T10:10:14.766Z,62.29
2023-08-08T10:12:44.060Z,62.70
2023-08-08T10:15:12.725Z,62.43
2023-08-08T10:17:41.877Z,60.07
2023-08-08T10:20:13.949Z,59.38
2023-08-08T10:22:48.378Z,56.85
2023-08-08T10:25:30.043Z,55.09
2023-08-08T10:28:24.132Z,55.20
2023-08-08T10:30:59.038Z,55.05
2023-08-08T10:33:29.374Z,56.32
2023-08-08T10:36:01.163Z,56.59
2023-08-08T10:38:52.482Z,55.78
2023-08-08T10:41:22.827Z,55.03
2023-08-08T10:44:00.189Z,54.21
2023-08-08T10:46:31.547Z,54.31
2023-08-08T10:49:07.596Z,55.20
2023-08-08T10:51:39.389Z,50.67
2023-08-08T10:54:09.005Z,50.55
2023-08-08T10:56:38.833Z,52.10
2023-08-08T10:59:19.302Z,50.00
2023-08-08T11:01:50.125Z,50.96
2023-08-08T11:04:23.129Z,51.78
2023-08-08T11:06:52.383Z,51.48
2023-08-08T11:09:20.487Z,50.35
2023-08-08T11:11:48.931Z,49.93
2023-08-08T11:14:18.773Z,49.50
2023-08-08T11:16:48.679Z,49.38
2023-08-08T11:19:18.447Z,50.00
2023-08-08T11:21:48.174Z,50.47
2023-08-08T11:24:16.576Z,50.38
2023-08-08T11:26:47.563Z,49.71
2023-08-08T11:29:15.525Z,48.30
2023-08-08T11:31:43.813Z,48.44
2023-08-08T11:34:12.859Z,46.68
2023-08-08T11:36:41.353Z,47.07
2023-08-08T11:39:11.501Z,47.41
2023-08-08T11:41:40.266Z,47.48
2023-08-08T11:44:10.538Z,47.72
2023-08-08T11:46:51.796Z,47.05
2023-08-08T11:49:20.436Z,47.41
2023-08-08T11:51:48.500Z,46.06
2023-08-08T11:54:17.177Z,45.17
2023-08-08T11:56:46.428Z,45.41
2023-08-08T11:59:14.920Z,44.30
2023-08-08T12:01:44.031Z,44.73
2023-08-08T12:04:12.270Z,44.61
2023-08-08T12:06:41.855Z,43.41
2023-08-08T12:09:09.942Z,43.88
2023-08-08T12:11:39.401Z,43.38
2023-08-08T12:14:10.440Z,42.50
2023-08-08T12:16:41.007Z,42.93
2023-08-08T12:19:13.672Z,42.22
2023-08-08T12:21:41.663Z,41.83
2023-08-08T12:24:09.814Z,39.53
2023-08-08T12:26:37.972Z,40.93
2023-08-08T12:29:06.201Z,41.44
2023-08-08T12:31:34.246Z,41.86
2023-08-08T12:34:02.291Z,41.32
2023-08-08T12:36:30.926Z,41.29
2023-08-08T12:38:58.841Z,42.02
2023-08-08T12:41:31.897Z,42.00
2023-08-08T12:44:00.019Z,41.67
2023-08-08T12:46:28.044Z,40.57
2023-08-08T12:48:56.011Z,40.70
2023-08-08T12:51:24.089Z,41.62
2023-08-08T12:53:52.463Z,41.26
2023-08-08T12:56:20.472Z,41.62
2023-08-08T12:58:48.355Z,42.01
2023-08-08T13:01:16.459Z,40.49
2023-08-08T13:03:51.137Z,39.44
2023-08-08T13:06:23.964Z,39.29
2023-08-08T13:08:51.986Z,39.66
2023-08-08T13:11:20.021Z,39.99
2023-08-08T13:13:48.052Z,39.51
2023-08-08T13:16:16.354Z,40.27
2023-08-08T13:18:44.498Z,40.41
2023-08-08T13:21:12.901Z,40.32
2023-08-08T13:23:40.937Z,39.70
2023-08-08T13:26:08.833Z,40.29
2023-08-08T13:28:36.895Z,39.40
2023-08-08T13:31:04.927Z,39.47
2023-08-08T13:33:32.946Z,39.75
2023-08-08T13:36:00.805Z,39.35
2023-08-08T13:38:29.103Z,40.11
2023-08-08T13:40:57.601Z,40.15
2023-08-08T13:43:26.385Z,40.47
2023-08-08T13:45:54.504Z,41.05
2023-08-08T13:48:22.524Z,40.77
2023-08-08T13:50:50.599Z,41.12
2023-08-08T13:53:18.653Z,40.10
2023-08-08T13:55:46.998Z,39.73
2023-08-08T13:58:15.530Z,39.99
2023-08-08T14:00:43.543Z,39.81
2023-08-08T14:03:11.721Z,39.89
2023-08-08T14:05:39.928Z,40.44
2023-08-08T14:08:07.987Z,40.73
2023-08-08T14:10:35.988Z,41.22
2023-08-08T14:13:04.234Z,41.27
2023-08-08T14:15:32.308Z,41.47
2023-08-08T14:18:00.268Z,41.56
2023-08-08T14:20:28.502Z,41.42
2023-08-08T14:22:56.527Z,40.94
2023-08-08T14:25:24.900Z,40.36
2023-08-08T14:27:53.171Z,40.15
2023-08-08T14:30:21.116Z,40.04
2023-08-08T14:32:49.082Z,40.41
2023-08-08T14:35:17.009Z,41.11
2023-08-08T14:37:44.984Z,41.48
2023-08-08T14:40:13.189Z,41.88
2023-08-08T14:42:41.146Z,42.48
2023-08-08T14:45:09.561Z,42.76
2023-08-08T14:47:37.537Z,42.76
2023-08-08T14:50:06.573Z,42.70
2023-08-08T14:52:34.631Z,42.73
2023-08-08T14:55:03.620Z,41.48
2023-08-08T14:57:31.705Z,42.14
2023-08-08T15:00:02.714Z,41.79
2023-08-08T15:02:30.780Z,41.65
2023-08-08T15:04:58.857Z,42.10
2023-08-08T15:07:26.777Z,42.16
2023-08-08T15:09:54.784Z,41.83
2023-08-08T15:12:22.656Z,41.42
2023-08-08T15:14:51.191Z,41.80
2023-08-08T15:17:19.286Z,41.99
2023-08-08T15:19:47.197Z,42.27
2023-08-08T15:22:15.195Z,42.00
2023-08-08T15:24:43.160Z,41.56
2023-08-08T15:27:11.096Z,39.50
2023-08-08T15:29:38.963Z,39.92
2023-08-08T15:32:07.366Z,40.12
2023-08-08T15:34:35.516Z,40.36
2023-08-08T15:37:04.049Z,40.29
2023-08-08T15:39:31.959Z,40.84
2023-08-08T15:41:59.969Z,40.09
2023-08-08T15:44:27.851Z,40.65
2023-08-08T15:46:55.846Z,40.65
2023-08-08T15:49:23.874Z,39.66
2023-08-08T15:51:51.928Z,38.12
2023-08-08T15:54:19.845Z,37.93
2023-08-08T15:56:48.216Z,37.95
2023-08-08T15:59:16.194Z,38.15
2023-08-08T16:01:44.194Z,38.05
2023-08-08T16:04:12.820Z,38.58
2023-08-08T16:06:41.361Z,39.21
2023-08-08T16:09:10.396Z,39.73
2023-08-08T16:11:38.764Z,39.74
2023-08-08T16:14:06.825Z,39.94
2023-08-08T16:16:34.940Z,39.82
2023-08-08T16:19:03.584Z,39.83
2023-08-08T16:21:31.686Z,39.97
2023-08-08T16:23:59.661Z,40.11
2023-08-08T16:26:27.553Z,40.04
2023-08-08T16:28:55.568Z,40.28
2023-08-08T16:31:23.706Z,39.95
2023-08-08T16:33:51.855Z,40.04
2023-08-08T16:36:19.782Z,39.93
2023-08-08T16:38:47.717Z,39.67
2023-08-08T16:41:15.644Z,40.07
2023-08-08T16:43:44.090Z,40.02
2023-08-08T16:46:12.053Z,39.98
2023-08-08T16:48:40.104Z,39.73
2023-08-08T16:51:08.144Z,39.48
2023-08-08T16:53:36.333Z,39.74
2023-08-08T16:56:09.080Z,39.90
2023-08-08T16:58:36.956Z,40.04
2023-08-08T17:01:05.202Z,40.49
2023-08-08T17:03:33.341Z,40.32
2023-08-08T17:06:01.648Z,39.14
2023-08-08T17:08:29.600Z,39.56
2023-08-08T17:10:57.608Z,39.79
2023-08-08T17:13:25.566Z,40.08
2023-08-08T17:15:53.654Z,40.52
2023-08-08T17:18:21.553Z,40.93
2023-08-08T17:20:49.555Z,41.04
2023-08-08T17:23:17.522Z,41.26
2023-08-08T17:25:45.596Z,41.61
2023-08-08T17:28:13.624Z,42.07
2023-08-08T17:30:41.592Z,42.19
2023-08-08T17:33:09.435Z,42.52
2023-08-08T17:35:37.496Z,42.66
2023-08-08T17:38:05.807Z,42.97
2023-08-08T17:40:33.743Z,43.19
2023-08-08T17:43:01.755Z,43.56
2023-08-08T17:45:29.834Z,43.70
2023-08-08T17:47:57.931Z,44.09
2023-08-08T17:50:25.972Z,44.38
2023-08-08T17:52:53.901Z,44.63
2023-08-08T17:55:29.178Z,44.77
2023-08-08T17:57:57.199Z,44.67
2023-08-08T18:00:25.388Z,44.77
2023-08-08T18:02:53.588Z,44.89
2023-08-08T18:05:21.691Z,45.12
2023-08-08T18:07:49.610Z,45.47
2023-08-08T18:10:17.712Z,45.73
2023-08-08T18:12:45.873Z,45.95
2023-08-08T18:15:13.891Z,46.08
2023-08-08T18:17:41.939Z,46.34
2023-08-08T18:20:11.806Z,46.55
2023-08-08T18:22:39.787Z,46.78
2023-08-08T18:25:08.008Z,47.11
2023-08-08T18:27:36.057Z,47.46
2023-08-08T18:30:04.608Z,47.55
2023-08-08T18:32:32.871Z,47.68
2023-08-08T18:35:00.845Z,47.67
2023-08-08T18:37:29.479Z,47.67
2023-08-08T18:39:57.481Z,47.78
2023-08-08T18:42:25.537Z,47.97
2023-08-08T18:44:53.406Z,48.20
2023-08-08T18:47:21.785Z,48.43
2023-08-08T18:49:49.786Z,48.67
2023-08-08T18:52:17.711Z,48.87
2023-08-08T18:54:45.748Z,48.87
2023-08-08T18:57:13.682Z,49.03
2023-08-08T18:59:41.661Z,48.98
2023-08-08T19:02:09.563Z,49.07
2023-08-08T19:04:37.521Z,49.31
2023-08-08T19:07:06.115Z,49.27
2023-08-08T19:09:34.140Z,49.43
2023-08-08T19:12:02.809Z,49.78
2023-08-08T19:14:31.099Z,50.07
2023-08-08T19:16:59.028Z,50.26
2023-08-08T19:19:27.142Z,50.23
2023-08-08T19:21:55.637Z,50.14
2023-08-08T19:24:23.709Z,50.50
2023-08-08T19:26:51.679Z,50.75
2023-08-08T19:29:19.715Z,51.04
2023-08-08T19:31:47.644Z,51.09
2023-08-08T19:34:15.701Z,51.05
2023-08-08T19:36:46.813Z,51.04
2023-08-08T19:39:20.215Z,51.16
2023-08-08T19:41:54.448Z,51.19
2023-08-08T19:44:22.448Z,51.44
2023-08-08T19:46:50.458Z,51.81
2023-08-08T19:49:18.872Z,52.33
2023-08-08T19:51:46.747Z,52.71
2023-08-08T19:54:17.381Z,52.65
2023-08-08T19:56:45.425Z,52.65
2023-08-08T19:59:16.492Z,52.68
2023-08-08T20:01:44.457Z,52.64
2023-08-08T20:04:12.723Z,52.84
2023-08-08T20:06:43.522Z,53.06
2023-08-08T20:09:14.716Z,53.17
2023-08-08T20:11:44.960Z,53.25
2023-08-08T20:14:16.751Z,53.12
2023-08-08T20:16:45.786Z,53.27
2023-08-08T20:19:14.887Z,53.07
2023-08-08T20:21:42.775Z,53.00
2023-08-08T20:24:16.478Z,53.09
2023-08-08T20:26:47.159Z,53.19
2023-08-08T20:29:17.304Z,53.43
2023-08-08T20:31:47.957Z,53.63
2023-08-08T20:34:18.829Z,53.87
2023-08-08T20:36:46.846Z,54.03
2023-08-08T20:39:17.489Z,54.33
2023-08-08T20:41:46.880Z,54.64
2023-08-08T20:44:17.786Z,54.98
2023-08-08T20:46:45.703Z,55.40
2023-08-08T20:49:14.751Z,55.46
2023-08-08T20:51:42.676Z,55.63
2023-08-08T20:54:10.977Z,55.99
2023-08-08T20:56:39.094Z,56.10
2023-08-08T20:59:09.772Z,56.33
2023-08-08T21:01:37.827Z,56.44
2023-08-08T21:04:05.913Z,56.63
2023-08-08T21:06:37.040Z,56.91
2023-08-08T21:09:05.776Z,57.23
2023-08-08T21:11:33.813Z,57.41
2023-08-08T21:14:01.756Z,57.74
2023-08-08T21:16:29.789Z,57.91
2023-08-08T21:18:57.808Z,58.01
2023-08-08T21:21:25.889Z,58.25
2023-08-08T21:23:53.778Z,58.59
2023-08-08T21:26:33.963Z,58.70
2023-08-08T21:29:13.925Z,58.92
2023-08-08T21:31:42.130Z,59.18
2023-08-08T21:34:10.508Z,59.16
2023-08-08T21:36:42.118Z,59.47
2023-08-08T21:39:14.169Z,59.76
2023-08-08T21:41:42.100Z,60.01
2023-08-08T21:44:10.072Z,59.94
2023-08-08T21:46:38.105Z,60.17
2023-08-08T21:49:06.218Z,60.28
2023-08-08T21:51:35.466Z,60.45
2023-08-08T21:54:03.412Z,60.75
2023-08-08T21:56:31.381Z,61.04
2023-08-08T21:58:59.661Z,61.23
2023-08-08T22:01:27.601Z,61.24
2023-08-08T22:03:55.595Z,61.22
2023-08-08T22:06:23.804Z,61.28
2023-08-08T22:08:51.761Z,61.60
2023-08-08T22:11:19.693Z,61.77
2023-08-08T22:13:47.681Z,62.12
2023-08-08T22:16:16.858Z,62.55
2023-08-08T22:18:45.175Z,62.63
2023-08-08T22:21:13.249Z,62.67
2023-08-08T22:23:41.161Z,62.83
2023-08-08T22:26:09.173Z,63.13
2023-08-08T22:28:37.080Z,63.43
2023-08-08T22:31:06.699Z,63.54
2023-08-08T22:33:34.949Z,63.72
2023-08-08T22:36:02.906Z,63.75
2023-08-08T22:38:30.848Z,63.81
2023-08-08T22:40:58.726Z,63.76
2023-08-08T22:43:26.766Z,63.51
2023-08-08T22:45:54.718Z,63.46
2023-08-08T22:48:22.681Z,63.60
2023-08-08T22:50:50.825Z,63.54
2023-08-08T22:53:18.798Z,63.44
2023-08-08T22:55:46.942Z,63.31
2023-08-08T22:58:16.048Z,63.24
2023-08-08T23:00:44.128Z,63.06
2023-08-08T23:03:12.528Z,62.94
2023-08-08T23:05:40.741Z,63.08
2023-08-08T23:08:08.786Z,63.51
2023-08-08T23:10:36.749Z,63.46
2023-08-08T23:13:04.828Z,63.56
2023-08-08T23:15:32.762Z,63.56
2023-08-08T23:18:00.710Z,63.46
2023-08-08T23:20:28.830Z,63.39
2023-08-08T23:22:56.742Z,63.28
2023-08-08T23:25:25.229Z,63.26
2023-08-08T23:27:53.240Z,63.21
2023-08-08T23:30:21.319Z,63.16
2023-08-08T23:32:54.494Z,63.09
2023-08-08T23:35:23.288Z,62.98
2023-08-08T23:37:51.235Z,62.95
2023-08-08T23:40:19.426Z,63.29
2023-08-08T23:42:47.350Z,63.23
2023-08-08T23:45:17.111Z,63.68
2023-08-08T23:47:45.192Z,64.08
2023-08-08T23:50:13.308Z,64.15
2023-08-08T23:52:41.551Z,64.36
2023-08-08T23:55:11.870Z,64.50
2023-08-08T23:57:39.822Z,64.62
